• Join FlightAware (Why Join?)
  • Login
  • US Flag 
04:51AM EDT


 

Airport Tracker/Info


-or-


 

Live Flight TrackerFlight Track Log ✈ SKW6432 ✈ 30-Jun-2013 ✈ KSFO - KSNA

Flight Track Log - Related Links

Times and Time Zones

All times are in EDT time to prevent confusion due to time zone crossing. See the SKW6432 flight status page for this flight to view local times or setup timezone preferences in your user account.

Time Position Orientation Groundspeed Altitude Reporting Facility
EDT Latitude Longitude Course Direction KTS MPH feet Rate Location/Type
07:22PM 37.6333 -122.3667 180° South 168 193 1,300  Level Northern Cal TRACON
07:23PM 37.6833 -122.3833 345° North 208 239 3,100 1,980 Climbing Northern Cal TRACON
07:24PM 37.7167 -122.4500 302° West 240 276 5,300 1,980 Climbing Northern Cal TRACON
07:25PM 37.7000 -122.5167 252° West 265 305 6,900 2,100 Climbing Northern Cal TRACON
07:26PM 37.3129 -122.5204 185° South  Level FlightAware Approximate
07:26PM 37.6167 -122.5667 205° Southwest 289 333 9,500  Level Northern Cal TRACON
07:27PM 37.2033 -122.5313 185° South  Level FlightAware Approximate
07:27PM 37.5711 -122.5639 177° South 278 320 10,300  Level Oakland Center
07:28PM 37.0943 -122.5500 180° South  Level FlightAware Approximate
07:28PM 37.4828 -122.5664 181° South 307 353 11,700  Level Oakland Center
07:29PM 37.3881 -122.5681 181° South 332 382 13,500 1,800 Climbing Oakland Center
07:30PM 37.2897 -122.5692 181° South 344 396 15,400 1,860 Climbing Oakland Center
07:31PM 37.1903 -122.5706 181° South 354 407 17,300 1,860 Climbing Oakland Center
07:32PM 37.0908 -122.5714 180° South 358 412 19,200 1,800 Climbing Oakland Center
07:33PM 36.9689 -122.5739 181° South 365 420 21,100 1,680 Climbing Oakland Center
07:34PM 36.8669 -122.5500 169° South 375 432 22,700 1,320 Climbing Oakland Center
07:35PM 36.7633 -122.5228 168° South 381 438 23,900 1,080 Climbing Oakland Center
07:36PM 36.6564 -122.4953 168° South 393 452 24,900 1,020 Climbing Oakland Center
07:37PM 36.5472 -122.4633 167° South 401 461 26,100 1,080 Climbing Oakland Center
07:38PM 36.4656 -122.3594 134° Southeast 414 476 27,200 960 Climbing Oakland Center
07:39PM 36.3842 -122.2553 134° Southeast 420 483 28,100 1,020 Climbing Oakland Center
07:40PM 36.3036 -122.1481 133° Southeast 425 489 29,400 1,200 Climbing Oakland Center
07:41PM 36.2233 -122.0436 134° Southeast 421 484 30,600 1,320 Climbing Oakland Center
07:42PM 36.1264 -121.9164 133° Southeast 422 486 32,100 1,320 Climbing Oakland Center
07:43PM 36.0467 -121.8136 134° Southeast 416 479 33,300 1,260 Climbing Oakland Center
07:44PM 35.9708 -121.7139 133° Southeast 416 479 34,700 780 Climbing Oakland Center
07:45PM 35.8931 -121.6117 133° Southeast 410 472 35,000 120 Climbing Oakland Center
07:46PM 35.8092 -121.5078 135° Southeast 422 486 35,000  Level Oakland Center
07:47PM 35.7272 -121.4019 134° Southeast 426 490 35,000  Level Oakland Center
07:48PM 35.6450 -121.2972 134° Southeast 427 491 35,000  Level Oakland Center
07:49PM 35.5628 -121.1917 134° Southeast 428 493 35,000  Level Oakland Center
07:50PM 35.4611 -121.0697 136° Southeast 428 493 35,000  Level Oakland Center
07:51PM 35.3594 -120.9950 149° Southeast 425 489 35,000  Level Oakland Center
07:52PM 35.2578 -120.9164 148° Southeast 431 496 35,000  Level Oakland Center
07:53PM 35.1514 -120.8328 147° Southeast 432 497 35,000  Level Oakland Center
07:55PM 35.0558 -120.7586 148° Southeast 435 501 35,000  Level Oakland Center
07:56PM 34.9453 -120.6719 147° Southeast 438 504 35,000  Level Oakland Center
07:57PM 34.8433 -120.5925 147° Southeast 436 502 35,000  Level Oakland Center
07:58PM 34.7386 -120.5108 147° Southeast 439 505 35,000  Level Oakland Center
07:59PM 34.6256 -120.4233 148° Southeast 443 510 35,000  Level Oakland Center
08:00PM 34.5214 -120.3428 147° Southeast 445 512 35,000  Level Oakland Center
08:01PM 34.3558 -120.2161 148° Southeast 444 511 35,000 -60 Level Los Angeles Center
08:02PM 34.2547 -120.1328 146° Southeast 438 504 34,900 -1,020 Descending Los Angeles Center
08:03PM 34.1739 -119.9814 123° Southeast 450 518 33,000 -1,800 Descending Los Angeles Center
08:04PM 34.1100 -119.8572 122° Southeast 441 507 31,200 -2,040 Descending Los Angeles Center
08:05PM 34.0458 -119.7306 121° Southeast 441 507 28,900 -2,400 Descending Los Angeles Center
08:06PM 33.9822 -119.6047 121° Southeast 442 509 26,300 -2,520 Descending Los Angeles Center
08:07PM 33.9186 -119.4803 122° Southeast 439 505 23,700 -2,520 Descending Los Angeles Center
08:09PM 33.8583 -119.3547 120° Southeast 435 501 21,100 -2,880 Descending Los Angeles Center
08:10PM 33.7858 -119.2156 122° Southeast 412 474 17,800 -2,880 Descending Los Angeles Center
08:11PM 33.7275 -119.1008 121° Southeast 407 468 15,200 -2,520 Descending Los Angeles Center
08:12PM 33.6700 -118.9886 122° Southeast 397 457 12,600 -1,860 Descending Los Angeles Center
08:13PM 33.6133 -118.8797 122° Southeast 389 448 11,100 -1,020 Descending Los Angeles Center
08:14PM 33.5808 -118.7531 107° East 323 372 10,100 -1,260 Descending Los Angeles Center
08:15PM 33.5594 -118.6203 101° East 293 337 8,300 -1,380 Descending Los Angeles Center
08:16PM 33.5483 -118.5244 98° East 294 338 7,300 -1,020 Descending Los Angeles Center
08:17PM 33.5664 -118.4303 77° East 296 341 6,300 -1,020 Descending Los Angeles Center
08:18PM 33.5836 -118.3428 77° East 284 327 5,300 -600 Descending Los Angeles Center
08:19PM 33.5997 -118.2508 78° East 254 292 5,100 -120 Descending Los Angeles Center
08:20PM 33.6139 -118.1775 77° East 237 273 5,100  Level Los Angeles Center
08:21PM 33.6281 -118.1017 77° East 234 269 5,100  Level Los Angeles Center
08:22PM 33.6603 -118.0342 60° Northeast 241 277 5,100  Level Los Angeles Center
08:23PM 33.7000 -117.9714 53° Northeast 239 275 5,100  Level Los Angeles Center
08:24PM 33.7472 -117.8942 54° Northeast 240 276 5,100 -300 Level Los Angeles Center
08:25PM 33.7922 -117.8447 42° Northeast 228 262 4,600 -1,080 Descending Los Angeles Center
08:27PM 33.7842 -117.8008 102° East 212 244 2,900 -1,380 Descending Los Angeles Center
08:28PM 33.7478 -117.8222 206° Southwest 168 193 1,800 -960 Descending Los Angeles Center
08:29PM 33.7147 -117.8433 208° Southwest 146 168 1,000 -780 Descending Los Angeles Center